createdAt,value
2022-11-25T00:01:16.163Z,6.83
2022-11-25T00:03:46.086Z,6.63
2022-11-25T00:06:16.137Z,6.03
2022-11-25T00:08:45.818Z,5.40
2022-11-25T00:11:16.476Z,4.20
2022-11-25T00:13:45.793Z,8.30
2022-11-25T00:16:15.819Z,4.60
2022-11-25T00:18:46.058Z,12.40
2022-11-25T00:21:17.620Z,3.70
2022-11-25T00:23:46.373Z,4.60
2022-11-25T00:26:18.029Z,4.80
2022-11-25T00:28:47.616Z,4.53
2022-11-25T00:31:17.599Z,5.83
2022-11-25T00:33:46.782Z,9.50
2022-11-25T00:36:19.075Z,5.30
2022-11-25T00:38:47.395Z,10.13
2022-11-25T00:41:34.395Z,7.53
2022-11-25T00:44:23.368Z,4.70
2022-11-25T00:46:51.544Z,10.40
2022-11-25T00:49:19.725Z,6.93
2022-11-25T00:51:48.029Z,6.20
2022-11-25T00:54:16.245Z,4.60
2022-11-25T00:56:45.713Z,5.13
2022-11-25T00:59:13.858Z,2.70
2022-11-25T01:01:42.033Z,6.00
2022-11-25T01:04:10.518Z,7.10
2022-11-25T01:06:40.467Z,3.03
2022-11-25T01:09:09.968Z,7.13
2022-11-25T01:11:40.732Z,6.27
2022-11-25T01:14:12.042Z,3.80
2022-11-25T01:16:40.293Z,4.80
2022-11-25T01:19:09.064Z,5.50
2022-11-25T01:21:37.492Z,4.80
2022-11-25T01:24:07.315Z,4.43
2022-11-25T01:26:36.915Z,5.70
2022-11-25T01:29:07.220Z,2.50
2022-11-25T01:31:38.657Z,6.03
2022-11-25T01:34:09.123Z,4.03
2022-11-25T01:36:37.322Z,7.33
2022-11-25T01:39:06.625Z,5.23
2022-11-25T01:41:36.125Z,2.10
2022-11-25T01:44:14.434Z,6.53
2022-11-25T01:46:48.995Z,4.23
2022-11-25T01:49:20.361Z,5.27
2022-11-25T01:51:52.729Z,3.57
2022-11-25T01:54:26.266Z,6.40
2022-11-25T01:57:00.265Z,4.77
2022-11-25T01:59:30.512Z,1.47
2022-11-25T02:02:00.745Z,3.03
2022-11-25T02:04:34.809Z,4.33
2022-11-25T02:07:10.727Z,3.10
2022-11-25T02:09:42.552Z,5.13
2022-11-25T02:12:11.562Z,2.60
2022-11-25T02:14:40.327Z,2.60
2022-11-25T02:17:10.125Z,5.23
2022-11-25T02:19:57.064Z,4.47
2022-11-25T02:22:33.495Z,6.13
2022-11-25T02:25:11.733Z,2.57
2022-11-25T02:27:40.464Z,4.30
2022-11-25T02:30:09.749Z,3.27
2022-11-25T02:32:37.882Z,1.77
2022-11-25T02:35:29.097Z,2.27
2022-11-25T02:38:01.325Z,6.77
2022-11-25T02:40:31.814Z,10.00
2022-11-25T02:43:01.643Z,3.90
2022-11-25T02:45:41.203Z,5.07
2022-11-25T02:48:09.639Z,3.93
2022-11-25T02:50:37.947Z,2.57
2022-11-25T02:53:06.230Z,2.40
2022-11-25T02:55:35.805Z,3.47
2022-11-25T02:58:03.949Z,1.53
2022-11-25T03:00:32.138Z,4.97
2022-11-25T03:03:00.430Z,8.30
2022-11-25T03:05:29.014Z,4.53
2022-11-25T03:07:57.281Z,5.60
2022-11-25T03:10:26.186Z,5.07
2022-11-25T03:12:56.529Z,4.70
2022-11-25T03:15:25.205Z,5.73
2022-11-25T03:17:53.858Z,3.40
2022-11-25T03:20:22.178Z,4.87
2022-11-25T03:22:50.386Z,2.10
2022-11-25T03:25:19.068Z,3.17
2022-11-25T03:27:51.198Z,4.07
2022-11-25T03:30:24.679Z,3.60
2022-11-25T03:32:57.097Z,4.40
2022-11-25T03:35:27.429Z,6.17
2022-11-25T03:37:55.529Z,2.30
2022-11-25T03:40:23.737Z,2.40
2022-11-25T03:42:52.333Z,2.70
2022-11-25T03:45:22.717Z,2.00
2022-11-25T03:47:51.570Z,2.57
2022-11-25T03:50:19.896Z,2.17
2022-11-25T03:52:49.134Z,5.10
2022-11-25T03:55:19.437Z,3.43
2022-11-25T03:57:48.034Z,3.83
2022-11-25T04:00:16.707Z,2.77
2022-11-25T04:03:02.691Z,2.63
2022-11-25T04:05:33.177Z,3.30
2022-11-25T04:08:06.640Z,3.67
2022-11-25T04:10:36.300Z,2.47
2022-11-25T04:13:04.749Z,6.60
2022-11-25T04:15:39.028Z,4.10
2022-11-25T04:18:09.391Z,3.87
2022-11-25T04:20:37.524Z,2.50
2022-11-25T04:23:08.845Z,2.83
2022-11-25T04:25:44.062Z,6.53
2022-11-25T04:28:23.135Z,2.03
2022-11-25T04:30:51.548Z,3.10
2022-11-25T04:33:21.143Z,4.47
2022-11-25T04:35:49.891Z,1.63
2022-11-25T04:38:18.585Z,3.27
2022-11-25T04:40:47.118Z,1.90
2022-11-25T04:43:18.654Z,2.73
2022-11-25T04:46:13.171Z,1.93
2022-11-25T04:48:42.136Z,5.40
2022-11-25T04:51:10.794Z,4.67
2022-11-25T04:53:39.197Z,5.77
2022-11-25T04:56:10.288Z,3.60
2022-11-25T04:59:01.339Z,6.40
2022-11-25T05:01:30.034Z,2.37
2022-11-25T05:04:09.089Z,1.13
2022-11-25T05:06:38.099Z,2.27
2022-11-25T05:09:07.157Z,2.37
2022-11-25T05:11:38.163Z,4.50
2022-11-25T05:14:07.058Z,3.00
2022-11-25T05:16:35.589Z,2.50
2022-11-25T05:19:05.145Z,3.00
2022-11-25T05:21:35.449Z,2.20
2022-11-25T05:24:03.594Z,3.50
2022-11-25T05:26:34.058Z,5.20
2022-11-25T05:29:02.845Z,3.53
2022-11-25T05:31:33.078Z,3.13
2022-11-25T05:34:02.090Z,6.60
2022-11-25T05:36:32.064Z,4.70
2022-11-25T05:39:01.635Z,3.00
2022-11-25T05:41:50.149Z,3.47
2022-11-25T05:44:22.629Z,2.63
2022-11-25T05:46:52.133Z,11.40
2022-11-25T05:49:20.970Z,3.70
2022-11-25T05:51:51.462Z,2.90
2022-11-25T05:54:25.544Z,3.10
2022-11-25T05:56:54.144Z,3.00
2022-11-25T05:59:33.734Z,3.30
2022-11-25T06:02:10.229Z,2.37
2022-11-25T06:04:38.898Z,8.60
2022-11-25T06:07:07.469Z,2.80
2022-11-25T06:09:37.343Z,2.43
2022-11-25T06:12:05.856Z,4.57
2022-11-25T06:14:38.379Z,1.93
2022-11-25T06:17:06.587Z,4.87
2022-11-25T06:19:48.577Z,2.07
2022-11-25T06:22:16.993Z,3.37
2022-11-25T06:24:52.939Z,4.33
2022-11-25T06:27:31.974Z,1.90
2022-11-25T06:30:14.167Z,2.67
2022-11-25T06:32:47.485Z,4.40
2022-11-25T06:35:22.096Z,3.37
2022-11-25T06:37:59.032Z,2.07
2022-11-25T06:40:28.537Z,2.50
2022-11-25T06:42:56.706Z,5.80
2022-11-25T06:45:24.841Z,6.13
2022-11-25T06:47:53.688Z,2.60
2022-11-25T06:50:21.919Z,2.83
2022-11-25T06:52:50.096Z,3.20
2022-11-25T06:55:18.390Z,4.27
2022-11-25T06:57:48.008Z,2.47
2022-11-25T07:00:16.882Z,3.77
2022-11-25T07:02:48.513Z,3.70
2022-11-25T07:05:17.161Z,2.27
2022-11-25T07:07:45.452Z,3.87
2022-11-25T07:10:13.597Z,3.00
2022-11-25T07:12:41.817Z,5.63
2022-11-25T07:15:12.510Z,4.80
2022-11-25T07:17:40.706Z,7.00
2022-11-25T07:20:09.935Z,4.70
2022-11-25T07:22:38.034Z,3.53
2022-11-25T07:25:09.477Z,3.57
2022-11-25T07:27:37.655Z,3.40
2022-11-25T07:32:57.064Z,4.83
2022-11-25T07:35:25.238Z,5.80
2022-11-25T07:37:53.669Z,4.07
2022-11-25T07:40:21.977Z,3.80
2022-11-25T07:42:50.158Z,4.53
2022-11-25T07:45:18.426Z,5.80
2022-11-25T07:47:47.469Z,4.83
2022-11-25T07:50:17.151Z,6.90
2022-11-25T07:52:45.283Z,6.60
2022-11-25T07:55:13.436Z,4.07
2022-11-25T07:57:41.569Z,11.43
2022-11-25T08:00:11.116Z,5.97
2022-11-25T08:02:42.206Z,7.83
2022-11-25T08:05:11.096Z,5.20
2022-11-25T08:07:40.674Z,5.73
2022-11-25T08:10:09.959Z,6.00
2022-11-25T08:12:38.371Z,3.60
2022-11-25T08:15:07.314Z,6.63
2022-11-25T08:17:35.477Z,6.33
2022-11-25T08:20:03.657Z,4.17
2022-11-25T08:22:31.781Z,6.57
2022-11-25T08:25:01.324Z,12.37
2022-11-25T08:27:29.418Z,7.00
2022-11-25T08:29:57.533Z,7.73
2022-11-25T08:32:25.629Z,5.03
2022-11-25T08:34:53.762Z,7.50
2022-11-25T08:37:21.921Z,13.43
2022-11-25T08:39:53.549Z,8.47
2022-11-25T08:42:23.668Z,4.53
2022-11-25T08:44:54.228Z,9.23
2022-11-25T08:47:22.377Z,7.23
2022-11-25T08:49:52.984Z,17.27
2022-11-25T08:52:21.538Z,9.87
2022-11-25T08:54:49.974Z,11.17
2022-11-25T08:57:18.117Z,9.63
2022-11-25T08:59:48.134Z,8.27
2022-11-25T09:02:17.924Z,9.20
2022-11-25T09:04:46.477Z,10.90
2022-11-25T09:07:14.676Z,11.07
2022-11-25T09:09:42.836Z,9.83
2022-11-25T09:12:10.982Z,12.73
2022-11-25T09:14:40.451Z,9.50
2022-11-25T09:17:11.744Z,11.47
2022-11-25T09:19:40.177Z,12.00
2022-11-25T09:22:09.189Z,15.43
2022-11-25T09:24:37.686Z,14.20
2022-11-25T09:27:05.989Z,8.43
2022-11-25T09:29:34.273Z,9.40
2022-11-25T09:32:02.485Z,8.67
2022-11-25T09:34:32.059Z,23.23
2022-11-25T09:37:00.127Z,7.03
2022-11-25T09:39:29.953Z,10.90
2022-11-25T09:42:34.658Z,9.87
2022-11-25T09:45:30.970Z,10.07
2022-11-25T09:48:11.356Z,12.30
2022-11-25T09:50:54.968Z,12.50
2022-11-25T09:53:33.029Z,14.47
2022-11-25T09:56:04.761Z,15.13
2022-11-25T09:58:36.656Z,14.63
2022-11-25T10:01:08.074Z,16.80
2022-11-25T10:03:40.476Z,16.03
2022-11-25T10:06:16.165Z,19.33
2022-11-25T10:08:46.675Z,14.87
2022-11-25T10:11:23.823Z,14.87
2022-11-25T10:13:57.618Z,22.10
2022-11-25T10:16:35.381Z,17.80
2022-11-25T10:19:11.716Z,14.67
2022-11-25T10:21:41.499Z,13.53
2022-11-25T10:24:15.694Z,16.50
2022-11-25T10:26:46.466Z,21.53
2022-11-25T10:29:27.486Z,13.30
2022-11-25T10:32:21.616Z,10.90
2022-11-25T10:34:53.974Z,15.40
2022-11-25T10:37:28.692Z,14.30
2022-11-25T10:39:56.884Z,14.70
2022-11-25T10:42:26.799Z,10.83
2022-11-25T10:44:55.893Z,10.00
2022-11-25T10:47:37.059Z,13.27
2022-11-25T10:50:14.975Z,10.80
2022-11-25T10:52:50.949Z,12.30
2022-11-25T10:55:21.741Z,15.00
2022-11-25T10:57:49.923Z,12.30
2022-11-25T11:00:31.825Z,10.27
2022-11-25T11:03:02.079Z,16.67
2022-11-25T11:05:32.037Z,14.37
2022-11-25T11:08:20.461Z,11.63
2022-11-25T11:11:08.782Z,12.93
2022-11-25T11:13:36.900Z,11.63
2022-11-25T11:16:05.728Z,9.27
2022-11-25T11:18:42.614Z,6.97
2022-11-25T11:21:30.018Z,8.37
2022-11-25T11:24:00.890Z,12.43
2022-11-25T11:26:30.709Z,9.17
2022-11-25T11:29:01.709Z,15.83
2022-11-25T11:31:33.716Z,6.73
2022-11-25T11:34:19.541Z,11.50
2022-11-25T11:37:01.157Z,10.00
2022-11-25T11:39:46.666Z,7.10
2022-11-25T11:42:20.450Z,7.43
2022-11-25T11:45:06.246Z,7.40
2022-11-25T11:47:45.093Z,11.37
2022-11-25T11:50:27.433Z,7.47
2022-11-25T11:53:04.746Z,12.53
2022-11-25T11:56:12.222Z,9.50
2022-11-25T11:58:55.275Z,8.77
2022-11-25T12:01:49.638Z,7.27
2022-11-25T12:04:23.635Z,7.10
2022-11-25T12:07:01.546Z,12.53
2022-11-25T12:09:32.946Z,6.43
2022-11-25T12:12:06.640Z,11.33
2022-11-25T12:14:45.097Z,8.30
2022-11-25T12:17:19.703Z,10.80
2022-11-25T12:19:56.167Z,8.93
2022-11-25T12:22:30.449Z,8.57
2022-11-25T12:25:07.464Z,8.67
2022-11-25T12:27:41.597Z,8.60
2022-11-25T12:30:14.800Z,8.10
2022-11-25T12:32:54.362Z,8.10
2022-11-25T12:35:32.426Z,4.43
2022-11-25T12:38:06.227Z,8.80
2022-11-25T12:40:41.863Z,7.40
2022-11-25T12:43:24.139Z,9.67
2022-11-25T12:46:04.510Z,15.20
2022-11-25T12:48:32.999Z,20.13
2022-11-25T12:51:08.366Z,9.13
2022-11-25T12:53:46.334Z,12.30
2022-11-25T12:56:20.964Z,6.70
2022-11-25T12:59:03.496Z,7.50
2022-11-25T13:01:50.409Z,11.63
2022-11-25T13:04:41.705Z,6.80
2022-11-25T13:07:28.409Z,11.13
2022-11-25T13:10:36.412Z,10.30
2022-11-25T13:13:18.520Z,13.20
2022-11-25T13:15:50.395Z,7.63
2022-11-25T13:18:21.394Z,12.33
2022-11-25T13:20:51.659Z,9.40
2022-11-25T13:23:33.676Z,6.87
2022-11-25T13:26:37.684Z,8.17
2022-11-25T13:29:42.056Z,9.20
2022-11-25T13:32:27.598Z,21.00
2022-11-25T13:35:37.823Z,13.10
2022-11-25T13:38:37.650Z,8.07
2022-11-25T13:41:24.290Z,11.10
2022-11-25T13:44:01.693Z,11.13
2022-11-25T13:46:39.612Z,10.27
2022-11-25T13:49:36.820Z,8.50
2022-11-25T13:52:24.404Z,6.00
2022-11-25T13:54:54.995Z,10.50
2022-11-25T13:57:29.460Z,7.00
2022-11-25T14:00:00.241Z,9.40
2022-11-25T14:02:41.896Z,8.57
2022-11-25T14:05:36.880Z,7.40
2022-11-25T14:08:17.056Z,7.40
2022-11-25T14:10:53.786Z,12.60
2022-11-25T14:13:39.234Z,9.30
2022-11-25T14:16:23.769Z,9.97
2022-11-25T14:19:43.201Z,11.30
2022-11-25T14:22:12.011Z,9.10
2022-11-25T14:24:43.667Z,8.00
2022-11-25T14:27:17.386Z,10.50
2022-11-25T14:29:51.878Z,7.17
2022-11-25T14:32:22.485Z,7.50
2022-11-25T14:34:58.043Z,9.00
2022-11-25T14:37:35.411Z,10.87
2022-11-25T14:40:09.497Z,11.83
2022-11-25T14:42:41.795Z,8.60
2022-11-25T14:45:22.851Z,9.87
2022-11-25T14:47:51.133Z,12.00
2022-11-25T14:50:34.173Z,10.10
2022-11-25T14:53:09.432Z,11.07
2022-11-25T14:55:39.074Z,8.40
2022-11-25T14:58:07.305Z,9.33
2022-11-25T15:00:35.590Z,14.10
2022-11-25T15:03:06.675Z,11.87
2022-11-25T15:05:36.394Z,13.10
2022-11-25T15:08:13.566Z,13.90
2022-11-25T15:10:44.866Z,11.87
2022-11-25T15:13:24.907Z,13.50
2022-11-25T15:15:55.849Z,19.73
2022-11-25T15:18:26.036Z,17.50
2022-11-25T15:20:59.245Z,20.93
2022-11-25T15:23:34.862Z,18.10
2022-11-25T15:26:05.533Z,15.57
2022-11-25T15:28:38.095Z,15.53
2022-11-25T15:31:11.005Z,13.60
2022-11-25T15:33:39.631Z,15.40
2022-11-25T15:36:08.480Z,11.50
2022-11-25T15:38:42.147Z,17.30
2022-11-25T15:41:20.954Z,20.50
2022-11-25T15:43:51.744Z,21.67
2022-11-25T15:46:20.187Z,24.33
2022-11-25T15:48:50.174Z,19.90
2022-11-25T15:51:35.515Z,20.23
2022-11-25T15:54:08.864Z,26.70
2022-11-25T15:56:39.982Z,26.17
2022-11-25T15:59:41.212Z,28.60
2022-11-25T16:02:38.575Z,28.37
2022-11-25T16:05:19.733Z,26.13
2022-11-25T16:08:24.706Z,26.10
2022-11-25T16:11:15.500Z,24.67
2022-11-25T16:13:43.693Z,26.27
2022-11-25T16:16:18.758Z,28.03
2022-11-25T16:18:57.013Z,37.47
2022-11-25T16:21:27.294Z,49.50
2022-11-25T16:23:59.024Z,40.90
2022-11-25T16:26:31.869Z,40.87
2022-11-25T16:29:03.246Z,25.80
2022-11-25T16:31:31.455Z,20.17
2022-11-25T16:34:14.569Z,17.33
2022-11-25T16:36:43.045Z,20.93
2022-11-25T16:39:11.250Z,21.03
2022-11-25T16:41:42.827Z,16.27
2022-11-25T16:44:18.658Z,13.13
2022-11-25T16:46:47.135Z,16.53
2022-11-25T16:49:16.988Z,14.97
2022-11-25T16:51:45.453Z,13.87
2022-11-25T16:54:13.844Z,22.27
2022-11-25T16:56:44.746Z,23.07
2022-11-25T16:59:16.800Z,26.50
2022-11-25T17:01:45.169Z,20.23
2022-11-25T17:04:14.158Z,18.30
2022-11-25T17:06:50.545Z,15.80
2022-11-25T17:09:32.336Z,17.37
2022-11-25T17:12:02.196Z,20.20
2022-11-25T17:14:32.515Z,17.00
2022-11-25T17:17:01.760Z,21.30
2022-11-25T17:19:30.979Z,16.23
2022-11-25T17:21:59.365Z,14.77
2022-11-25T17:24:28.402Z,11.13
2022-11-25T17:26:59.606Z,16.30
2022-11-25T17:29:33.821Z,15.87
2022-11-25T17:32:02.947Z,11.10
2022-11-25T17:34:34.993Z,18.10
2022-11-25T17:37:08.134Z,15.67
2022-11-25T17:39:36.652Z,20.13
2022-11-25T17:42:06.566Z,18.23
2022-11-25T17:44:37.303Z,14.13
2022-11-25T17:47:12.907Z,16.60
2022-11-25T17:49:41.808Z,16.10
2022-11-25T17:52:10.377Z,15.80
2022-11-25T17:54:38.823Z,15.37
2022-11-25T17:57:12.170Z,21.87
2022-11-25T17:59:42.668Z,21.93
2022-11-25T18:02:19.863Z,14.90
2022-11-25T18:04:48.179Z,19.30
2022-11-25T18:07:16.712Z,14.13
2022-11-25T18:09:45.562Z,14.60
2022-11-25T18:12:18.878Z,17.43
2022-11-25T18:14:48.583Z,15.03
2022-11-25T18:17:19.138Z,12.57
2022-11-25T18:19:54.454Z,21.90
2022-11-25T18:22:24.711Z,20.10
2022-11-25T18:24:53.823Z,24.90
2022-11-25T18:27:24.558Z,22.50
2022-11-25T18:29:55.078Z,21.23
2022-11-25T18:32:24.437Z,24.13
2022-11-25T18:34:53.306Z,25.90
2022-11-25T18:37:21.750Z,30.20
2022-11-25T18:39:49.964Z,24.03
2022-11-25T18:42:25.468Z,30.60
2022-11-25T18:44:57.216Z,21.70
2022-11-25T18:47:25.616Z,30.77
2022-11-25T18:49:56.222Z,25.53
2022-11-25T18:52:25.271Z,33.60
2022-11-25T18:54:53.709Z,32.90
2022-11-25T18:57:22.173Z,41.40
2022-11-25T19:00:10.728Z,41.83
2022-11-25T19:02:40.176Z,49.17
2022-11-25T19:05:18.869Z,56.83
2022-11-25T19:07:47.781Z,50.23
2022-11-25T19:10:16.932Z,38.30
2022-11-25T19:12:47.598Z,39.60
2022-11-25T19:15:18.347Z,34.33
2022-11-25T19:17:51.727Z,33.33
2022-11-25T19:20:23.234Z,28.97
2022-11-25T19:22:51.491Z,28.33
2022-11-25T19:25:19.661Z,17.87
2022-11-25T19:27:51.742Z,22.60
2022-11-25T19:30:23.315Z,29.00
2022-11-25T19:32:55.610Z,23.77
2022-11-25T19:35:30.706Z,27.50
2022-11-25T19:37:58.916Z,30.00
2022-11-25T19:40:27.036Z,34.40
2022-11-25T19:42:56.020Z,34.27
2022-11-25T19:45:24.359Z,30.63
2022-11-25T19:47:54.098Z,30.20
2022-11-25T19:50:24.245Z,29.67
2022-11-25T19:52:53.511Z,29.90
2022-11-25T19:55:23.270Z,22.13
2022-11-25T19:57:52.898Z,23.93
2022-11-25T20:00:22.646Z,19.23
2022-11-25T20:02:54.886Z,22.10
2022-11-25T20:05:27.683Z,16.87
2022-11-25T20:07:56.402Z,21.13
2022-11-25T20:10:26.282Z,21.90
2022-11-25T20:12:55.552Z,17.50
2022-11-25T20:15:24.653Z,16.60
2022-11-25T20:17:56.946Z,13.00
2022-11-25T20:20:28.052Z,13.50
2022-11-25T20:23:00.817Z,15.83
2022-11-25T20:25:29.078Z,17.90
2022-11-25T20:27:57.587Z,20.63
2022-11-25T20:30:27.382Z,13.20
2022-11-25T20:32:57.049Z,23.93
2022-11-25T20:35:26.912Z,14.57
2022-11-25T20:37:57.542Z,14.83
2022-11-25T20:40:33.377Z,15.87
2022-11-25T20:43:02.075Z,23.40
2022-11-25T20:45:31.110Z,15.33
2022-11-25T20:48:00.779Z,14.57
2022-11-25T20:50:30.708Z,13.73
2022-11-25T20:52:58.839Z,14.33
2022-11-25T20:55:27.391Z,12.70
2022-11-25T20:57:55.537Z,12.70
2022-11-25T21:00:25.616Z,11.37
2022-11-25T21:02:55.399Z,11.77
2022-11-25T21:05:25.213Z,12.03
2022-11-25T21:07:55.321Z,13.10
2022-11-25T21:10:27.293Z,12.00
2022-11-25T21:12:56.556Z,12.77
2022-11-25T21:15:27.506Z,11.57
2022-11-25T21:17:57.561Z,14.57
2022-11-25T21:20:27.510Z,10.30
2022-11-25T21:22:58.444Z,18.63
2022-11-25T21:25:27.296Z,12.03
2022-11-25T21:27:55.494Z,15.53
2022-11-25T21:30:25.535Z,14.03
2022-11-25T21:32:56.307Z,16.23
2022-11-25T21:35:30.697Z,13.53
2022-11-25T21:37:59.520Z,14.10
2022-11-25T21:40:38.909Z,9.67
2022-11-25T21:43:17.139Z,14.23
2022-11-25T21:45:49.483Z,11.60
2022-11-25T21:48:20.494Z,13.03
2022-11-25T21:50:50.772Z,17.93
2022-11-25T21:53:19.411Z,17.17
2022-11-25T21:55:48.577Z,13.23
2022-11-25T21:58:18.495Z,11.50
2022-11-25T22:00:49.961Z,10.03
2022-11-25T22:03:20.599Z,14.90
2022-11-25T22:05:51.389Z,9.73
2022-11-25T22:08:20.255Z,11.07
2022-11-25T22:10:51.534Z,11.30
2022-11-25T22:13:22.401Z,12.60
2022-11-25T22:15:55.155Z,8.40
2022-11-25T22:18:27.877Z,8.70
2022-11-25T22:20:57.511Z,15.77
2022-11-25T22:23:25.895Z,9.30
2022-11-25T22:25:54.603Z,10.73
2022-11-25T22:28:25.838Z,13.80
2022-11-25T22:30:55.729Z,14.23
2022-11-25T22:33:30.379Z,7.90
2022-11-25T22:36:00.477Z,11.97
2022-11-25T22:38:30.523Z,14.40
2022-11-25T22:41:02.245Z,9.27
2022-11-25T22:43:33.485Z,15.10
2022-11-25T22:46:02.082Z,13.20
2022-11-25T22:48:34.726Z,12.80
2022-11-25T22:51:04.781Z,13.50
2022-11-25T22:53:33.294Z,10.77
2022-11-25T22:56:01.690Z,12.20
2022-11-25T22:58:30.098Z,13.27
2022-11-25T23:00:58.405Z,9.97
2022-11-25T23:03:29.349Z,8.53
2022-11-25T23:05:58.718Z,12.87
2022-11-25T23:08:31.607Z,9.80
2022-11-25T23:11:00.627Z,14.60
2022-11-25T23:13:28.782Z,9.37
2022-11-25T23:15:59.600Z,9.47
2022-11-25T23:18:32.896Z,10.80
2022-11-25T23:21:05.979Z,8.43
2022-11-25T23:23:35.629Z,11.87
2022-11-25T23:26:03.937Z,9.47
2022-11-25T23:28:32.107Z,15.30
2022-11-25T23:31:02.314Z,10.00
2022-11-25T23:33:34.871Z,12.50
2022-11-25T23:36:07.596Z,16.27
2022-11-25T23:38:46.102Z,7.20
2022-11-25T23:41:16.710Z,17.00
2022-11-25T23:43:45.049Z,9.80
2022-11-25T23:46:15.920Z,10.13
2022-11-25T23:48:46.979Z,7.83
2022-11-25T23:51:15.445Z,8.63
2022-11-25T23:53:45.526Z,10.30
2022-11-25T23:56:14.141Z,17.67
2022-11-25T23:58:42.369Z,7.30
